sensor_id;sensor_type;location;lat;lon;timestamp;temperature;humidity
41058;DHT22;66768;48.884;2.258;2024-03-06T00:01:47;9.00;99.90
41058;DHT22;66768;48.884;2.258;2024-03-06T00:04:14;9.00;99.90
41058;DHT22;66768;48.884;2.258;2024-03-06T00:06:41;9.00;99.90
41058;DHT22;66768;48.884;2.258;2024-03-06T00:09:07;9.00;99.90
41058;DHT22;66768;48.884;2.258;2024-03-06T00:11:36;9.00;99.90
41058;DHT22;66768;48.884;2.258;2024-03-06T00:14:03;9.00;99.90
41058;DHT22;66768;48.884;2.258;2024-03-06T00:16:30;9.00;99.90
41058;DHT22;66768;48.884;2.258;2024-03-06T00:18:57;9.00;99.90
41058;DHT22;66768;48.884;2.258;2024-03-06T00:21:24;9.00;99.90
41058;DHT22;66768;48.884;2.258;2024-03-06T00:23:51;9.00;99.90
41058;DHT22;66768;48.884;2.258;2024-03-06T00:26:18;9.00;99.90
41058;DHT22;66768;48.884;2.258;2024-03-06T00:28:46;9.00;99.90
41058;DHT22;66768;48.884;2.258;2024-03-06T00:31:13;8.90;99.90
41058;DHT22;66768;48.884;2.258;2024-03-06T00:33:40;9.00;99.90
41058;DHT22;66768;48.884;2.258;2024-03-06T00:36:07;9.00;99.90
41058;DHT22;66768;48.884;2.258;2024-03-06T00:38:34;9.00;99.90
41058;DHT22;66768;48.884;2.258;2024-03-06T00:41:01;9.00;99.90
41058;DHT22;66768;48.884;2.258;2024-03-06T00:43:28;9.10;99.90
41058;DHT22;66768;48.884;2.258;2024-03-06T00:45:56;9.00;99.90
41058;DHT22;66768;48.884;2.258;2024-03-06T00:48:22;9.10;99.90
41058;DHT22;66768;48.884;2.258;2024-03-06T00:50:49;9.00;99.90
41058;DHT22;66768;48.884;2.258;2024-03-06T00:53:16;9.00;99.90
41058;DHT22;66768;48.884;2.258;2024-03-06T00:55:43;9.00;99.90
41058;DHT22;66768;48.884;2.258;2024-03-06T00:58:10;9.00;99.90
41058;DHT22;66768;48.884;2.258;2024-03-06T01:00:36;9.10;99.90
41058;DHT22;66768;48.884;2.258;2024-03-06T01:03:05;9.00;99.90
41058;DHT22;66768;48.884;2.258;2024-03-06T01:05:32;8.80;99.90
41058;DHT22;66768;48.884;2.258;2024-03-06T01:07:59;8.90;99.90
41058;DHT22;66768;48.884;2.258;2024-03-06T01:10:26;8.90;99.90
41058;DHT22;66768;48.884;2.258;2024-03-06T01:12:52;8.90;99.90
41058;DHT22;66768;48.884;2.258;2024-03-06T01:15:19;8.90;99.90
41058;DHT22;66768;48.884;2.258;2024-03-06T01:17:46;8.90;99.90
41058;DHT22;66768;48.884;2.258;2024-03-06T01:20:14;8.90;99.90
41058;DHT22;66768;48.884;2.258;2024-03-06T01:22:41;8.90;99.90
41058;DHT22;66768;48.884;2.258;2024-03-06T01:25:08;8.90;99.90
41058;DHT22;66768;48.884;2.258;2024-03-06T01:27:35;8.90;99.90
41058;DHT22;66768;48.884;2.258;2024-03-06T01:30:02;8.80;99.90
41058;DHT22;66768;48.884;2.258;2024-03-06T01:32:29;8.90;99.90
41058;DHT22;66768;48.884;2.258;2024-03-06T01:34:56;8.80;99.90
41058;DHT22;66768;48.884;2.258;2024-03-06T01:37:24;8.80;99.90
41058;DHT22;66768;48.884;2.258;2024-03-06T01:39:51;8.90;99.90
41058;DHT22;66768;48.884;2.258;2024-03-06T01:42:18;8.90;99.90
41058;DHT22;66768;48.884;2.258;2024-03-06T01:44:45;8.90;99.90
41058;DHT22;66768;48.884;2.258;2024-03-06T01:47:12;8.80;99.90
41058;DHT22;66768;48.884;2.258;2024-03-06T01:49:39;8.90;99.90
41058;DHT22;66768;48.884;2.258;2024-03-06T01:52:08;8.80;99.90
41058;DHT22;66768;48.884;2.258;2024-03-06T01:54:37;8.90;99.90
41058;DHT22;66768;48.884;2.258;2024-03-06T01:57:06;8.80;99.90
41058;DHT22;66768;48.884;2.258;2024-03-06T01:59:34;8.90;99.90
41058;DHT22;66768;48.884;2.258;2024-03-06T02:02:01;8.90;99.90
41058;DHT22;66768;48.884;2.258;2024-03-06T02:04:29;8.80;99.90
41058;DHT22;66768;48.884;2.258;2024-03-06T02:06:56;8.80;99.90
41058;DHT22;66768;48.884;2.258;2024-03-06T02:09:23;8.90;99.90
41058;DHT22;66768;48.884;2.258;2024-03-06T02:11:51;8.90;99.90
41058;DHT22;66768;48.884;2.258;2024-03-06T02:14:19;8.80;99.90
41058;DHT22;66768;48.884;2.258;2024-03-06T02:16:46;8.70;99.90
41058;DHT22;66768;48.884;2.258;2024-03-06T02:19:12;8.80;99.90
41058;DHT22;66768;48.884;2.258;2024-03-06T02:21:41;8.80;99.90
41058;DHT22;66768;48.884;2.258;2024-03-06T02:24:09;8.80;99.90
41058;DHT22;66768;48.884;2.258;2024-03-06T02:26:37;8.80;99.90
41058;DHT22;66768;48.884;2.258;2024-03-06T02:29:04;8.70;99.90
41058;DHT22;66768;48.884;2.258;2024-03-06T02:31:31;8.80;99.90
41058;DHT22;66768;48.884;2.258;2024-03-06T02:33:58;8.70;99.90
41058;DHT22;66768;48.884;2.258;2024-03-06T02:36:30;8.80;99.90
41058;DHT22;66768;48.884;2.258;2024-03-06T02:38:59;8.80;99.90
41058;DHT22;66768;48.884;2.258;2024-03-06T02:41:26;8.80;99.90
41058;DHT22;66768;48.884;2.258;2024-03-06T02:43:53;8.80;99.90
41058;DHT22;66768;48.884;2.258;2024-03-06T02:46:19;8.80;99.90
41058;DHT22;66768;48.884;2.258;2024-03-06T02:48:46;8.70;99.90
41058;DHT22;66768;48.884;2.258;2024-03-06T02:51:18;8.70;99.90
41058;DHT22;66768;48.884;2.258;2024-03-06T02:53:45;8.70;99.90
41058;DHT22;66768;48.884;2.258;2024-03-06T02:56:17;8.70;99.90
41058;DHT22;66768;48.884;2.258;2024-03-06T02:58:44;8.80;99.90
41058;DHT22;66768;48.884;2.258;2024-03-06T03:01:10;8.80;99.90
41058;DHT22;66768;48.884;2.258;2024-03-06T03:03:40;8.70;99.90
41058;DHT22;66768;48.884;2.258;2024-03-06T03:06:07;8.70;99.90
41058;DHT22;66768;48.884;2.258;2024-03-06T03:08:34;8.70;99.90
41058;DHT22;66768;48.884;2.258;2024-03-06T03:11:02;8.70;99.90
41058;DHT22;66768;48.884;2.258;2024-03-06T03:13:30;8.80;99.90
41058;DHT22;66768;48.884;2.258;2024-03-06T03:15:57;8.80;99.90
41058;DHT22;66768;48.884;2.258;2024-03-06T03:18:24;8.80;99.90
41058;DHT22;66768;48.884;2.258;2024-03-06T03:20:51;8.80;99.90
41058;DHT22;66768;48.884;2.258;2024-03-06T03:23:18;8.80;99.90
41058;DHT22;66768;48.884;2.258;2024-03-06T03:25:47;8.80;99.90
41058;DHT22;66768;48.884;2.258;2024-03-06T03:28:14;8.80;99.90
41058;DHT22;66768;48.884;2.258;2024-03-06T03:30:44;8.70;99.90
41058;DHT22;66768;48.884;2.258;2024-03-06T03:33:11;8.70;99.90
41058;DHT22;66768;48.884;2.258;2024-03-06T03:35:38;8.70;99.90
41058;DHT22;66768;48.884;2.258;2024-03-06T03:38:05;8.70;99.90
41058;DHT22;66768;48.884;2.258;2024-03-06T03:40:31;8.70;99.90
41058;DHT22;66768;48.884;2.258;2024-03-06T03:42:59;8.70;99.90
41058;DHT22;66768;48.884;2.258;2024-03-06T03:45:31;8.70;99.90
41058;DHT22;66768;48.884;2.258;2024-03-06T03:48:00;8.70;99.90
41058;DHT22;66768;48.884;2.258;2024-03-06T03:50:28;8.70;99.90
41058;DHT22;66768;48.884;2.258;2024-03-06T03:52:55;8.60;99.90
41058;DHT22;66768;48.884;2.258;2024-03-06T03:55:23;8.60;99.90
41058;DHT22;66768;48.884;2.258;2024-03-06T03:57:51;8.60;99.90
41058;DHT22;66768;48.884;2.258;2024-03-06T04:00:18;8.50;99.90
41058;DHT22;66768;48.884;2.258;2024-03-06T04:02:46;8.50;99.90
41058;DHT22;66768;48.884;2.258;2024-03-06T04:05:14;8.60;99.90
41058;DHT22;66768;48.884;2.258;2024-03-06T04:07:41;8.60;99.90
41058;DHT22;66768;48.884;2.258;2024-03-06T04:10:08;8.50;99.90
41058;DHT22;66768;48.884;2.258;2024-03-06T04:12:37;8.50;99.90
41058;DHT22;66768;48.884;2.258;2024-03-06T04:15:05;8.40;99.90
41058;DHT22;66768;48.884;2.258;2024-03-06T04:17:33;8.40;99.90
41058;DHT22;66768;48.884;2.258;2024-03-06T04:20:00;8.50;99.90
41058;DHT22;66768;48.884;2.258;2024-03-06T04:22:29;8.60;99.90
41058;DHT22;66768;48.884;2.258;2024-03-06T04:24:56;8.50;99.90
41058;DHT22;66768;48.884;2.258;2024-03-06T04:27:24;8.50;99.90
41058;DHT22;66768;48.884;2.258;2024-03-06T04:29:51;8.60;99.90
41058;DHT22;66768;48.884;2.258;2024-03-06T04:32:18;8.60;99.90
41058;DHT22;66768;48.884;2.258;2024-03-06T04:34:45;8.60;99.90
41058;DHT22;66768;48.884;2.258;2024-03-06T04:37:13;8.50;99.90
41058;DHT22;66768;48.884;2.258;2024-03-06T04:39:41;8.60;99.90
41058;DHT22;66768;48.884;2.258;2024-03-06T04:42:08;8.60;99.90
41058;DHT22;66768;48.884;2.258;2024-03-06T04:44:36;8.60;99.90
41058;DHT22;66768;48.884;2.258;2024-03-06T04:47:03;8.60;99.90
41058;DHT22;66768;48.884;2.258;2024-03-06T04:49:33;8.50;99.90
41058;DHT22;66768;48.884;2.258;2024-03-06T04:52:00;8.50;99.90
41058;DHT22;66768;48.884;2.258;2024-03-06T04:54:28;8.50;99.90
41058;DHT22;66768;48.884;2.258;2024-03-06T04:56:56;8.60;99.90
41058;DHT22;66768;48.884;2.258;2024-03-06T04:59:23;8.60;99.90
41058;DHT22;66768;48.884;2.258;2024-03-06T05:01:50;8.70;99.90
41058;DHT22;66768;48.884;2.258;2024-03-06T05:04:17;8.70;99.90
41058;DHT22;66768;48.884;2.258;2024-03-06T05:06:43;8.60;99.90
41058;DHT22;66768;48.884;2.258;2024-03-06T05:09:10;8.60;99.90
41058;DHT22;66768;48.884;2.258;2024-03-06T05:11:38;8.50;99.90
41058;DHT22;66768;48.884;2.258;2024-03-06T05:14:06;8.60;99.90
41058;DHT22;66768;48.884;2.258;2024-03-06T05:16:33;8.50;99.90
41058;DHT22;66768;48.884;2.258;2024-03-06T05:19:00;8.40;99.90
41058;DHT22;66768;48.884;2.258;2024-03-06T05:21:27;8.30;99.90
41058;DHT22;66768;48.884;2.258;2024-03-06T05:23:54;8.30;99.90
41058;DHT22;66768;48.884;2.258;2024-03-06T05:26:21;8.40;99.90
41058;DHT22;66768;48.884;2.258;2024-03-06T05:28:49;8.40;99.90
41058;DHT22;66768;48.884;2.258;2024-03-06T05:31:18;8.50;99.90
41058;DHT22;66768;48.884;2.258;2024-03-06T05:33:47;8.50;99.90
41058;DHT22;66768;48.884;2.258;2024-03-06T05:36:15;8.40;99.90
41058;DHT22;66768;48.884;2.258;2024-03-06T05:38:43;8.40;99.90
41058;DHT22;66768;48.884;2.258;2024-03-06T05:41:09;8.40;99.90
41058;DHT22;66768;48.884;2.258;2024-03-06T05:43:36;8.40;99.90
41058;DHT22;66768;48.884;2.258;2024-03-06T05:46:03;8.40;99.90
41058;DHT22;66768;48.884;2.258;2024-03-06T05:48:32;8.40;99.90
41058;DHT22;66768;48.884;2.258;2024-03-06T05:50:59;8.40;99.90
41058;DHT22;66768;48.884;2.258;2024-03-06T05:53:26;8.40;99.90
41058;DHT22;66768;48.884;2.258;2024-03-06T05:55:53;8.40;99.90
41058;DHT22;66768;48.884;2.258;2024-03-06T05:58:20;8.40;99.90
41058;DHT22;66768;48.884;2.258;2024-03-06T06:00:47;8.40;99.90
41058;DHT22;66768;48.884;2.258;2024-03-06T06:03:14;8.30;99.90
41058;DHT22;66768;48.884;2.258;2024-03-06T06:05:43;8.40;99.90
41058;DHT22;66768;48.884;2.258;2024-03-06T06:08:09;8.50;99.90
41058;DHT22;66768;48.884;2.258;2024-03-06T06:10:36;8.50;99.90
41058;DHT22;66768;48.884;2.258;2024-03-06T06:13:03;8.50;99.90
41058;DHT22;66768;48.884;2.258;2024-03-06T06:15:31;8.50;99.90
41058;DHT22;66768;48.884;2.258;2024-03-06T06:17:58;8.50;99.90
41058;DHT22;66768;48.884;2.258;2024-03-06T06:20:25;8.50;99.90
41058;DHT22;66768;48.884;2.258;2024-03-06T06:22:53;8.50;99.90
41058;DHT22;66768;48.884;2.258;2024-03-06T06:25:20;8.60;99.90
41058;DHT22;66768;48.884;2.258;2024-03-06T06:27:47;8.60;99.90
41058;DHT22;66768;48.884;2.258;2024-03-06T06:30:15;8.60;99.90
41058;DHT22;66768;48.884;2.258;2024-03-06T06:32:42;8.60;99.90
41058;DHT22;66768;48.884;2.258;2024-03-06T06:35:09;8.60;99.90
41058;DHT22;66768;48.884;2.258;2024-03-06T06:37:37;8.50;99.90
41058;DHT22;66768;48.884;2.258;2024-03-06T06:40:06;8.60;99.90
41058;DHT22;66768;48.884;2.258;2024-03-06T06:42:35;8.60;99.90
41058;DHT22;66768;48.884;2.258;2024-03-06T06:45:02;8.50;99.90
41058;DHT22;66768;48.884;2.258;2024-03-06T06:47:29;8.50;99.90
41058;DHT22;66768;48.884;2.258;2024-03-06T06:49:56;8.50;99.90
41058;DHT22;66768;48.884;2.258;2024-03-06T06:52:23;8.60;99.90
41058;DHT22;66768;48.884;2.258;2024-03-06T06:54:53;8.60;99.90
41058;DHT22;66768;48.884;2.258;2024-03-06T06:57:21;8.60;99.90
41058;DHT22;66768;48.884;2.258;2024-03-06T06:59:48;8.60;99.90
41058;DHT22;66768;48.884;2.258;2024-03-06T07:02:15;8.70;99.90
41058;DHT22;66768;48.884;2.258;2024-03-06T07:04:44;8.70;99.90
41058;DHT22;66768;48.884;2.258;2024-03-06T07:07:11;8.70;99.90
41058;DHT22;66768;48.884;2.258;2024-03-06T07:09:39;8.60;99.90
41058;DHT22;66768;48.884;2.258;2024-03-06T07:12:06;8.60;99.90
41058;DHT22;66768;48.884;2.258;2024-03-06T07:14:34;8.70;99.90
41058;DHT22;66768;48.884;2.258;2024-03-06T07:17:02;8.70;99.90
41058;DHT22;66768;48.884;2.258;2024-03-06T07:19:28;8.70;99.90
41058;DHT22;66768;48.884;2.258;2024-03-06T07:21:55;8.70;99.90
41058;DHT22;66768;48.884;2.258;2024-03-06T07:24:22;8.70;99.90
41058;DHT22;66768;48.884;2.258;2024-03-06T07:26:49;8.70;99.90
41058;DHT22;66768;48.884;2.258;2024-03-06T07:29:16;8.70;99.90
41058;DHT22;66768;48.884;2.258;2024-03-06T07:31:45;8.70;99.90
41058;DHT22;66768;48.884;2.258;2024-03-06T07:34:13;8.70;99.90
41058;DHT22;66768;48.884;2.258;2024-03-06T07:36:40;8.80;99.90
41058;DHT22;66768;48.884;2.258;2024-03-06T07:39:07;8.80;99.90
41058;DHT22;66768;48.884;2.258;2024-03-06T07:41:33;8.70;99.90
41058;DHT22;66768;48.884;2.258;2024-03-06T07:44:00;8.70;99.90
41058;DHT22;66768;48.884;2.258;2024-03-06T07:46:28;8.80;99.90
41058;DHT22;66768;48.884;2.258;2024-03-06T07:48:56;8.80;99.90
41058;DHT22;66768;48.884;2.258;2024-03-06T07:51:23;8.80;99.90
41058;DHT22;66768;48.884;2.258;2024-03-06T07:53:50;8.80;99.90
41058;DHT22;66768;48.884;2.258;2024-03-06T07:56:18;8.80;99.90
41058;DHT22;66768;48.884;2.258;2024-03-06T07:58:44;8.80;99.90
41058;DHT22;66768;48.884;2.258;2024-03-06T08:01:11;8.80;99.90
41058;DHT22;66768;48.884;2.258;2024-03-06T08:03:39;8.80;99.90
41058;DHT22;66768;48.884;2.258;2024-03-06T08:06:08;8.80;99.90
41058;DHT22;66768;48.884;2.258;2024-03-06T08:08:35;8.80;99.90
41058;DHT22;66768;48.884;2.258;2024-03-06T08:11:02;8.80;99.90
41058;DHT22;66768;48.884;2.258;2024-03-06T08:13:29;8.80;99.90
41058;DHT22;66768;48.884;2.258;2024-03-06T08:15:56;8.90;99.90
41058;DHT22;66768;48.884;2.258;2024-03-06T08:18:22;8.90;99.90
41058;DHT22;66768;48.884;2.258;2024-03-06T08:20:49;8.80;99.90
41058;DHT22;66768;48.884;2.258;2024-03-06T08:23:19;8.90;99.90
41058;DHT22;66768;48.884;2.258;2024-03-06T08:25:46;8.90;99.90
41058;DHT22;66768;48.884;2.258;2024-03-06T08:28:13;8.90;99.90
41058;DHT22;66768;48.884;2.258;2024-03-06T08:30:41;9.00;99.90
41058;DHT22;66768;48.884;2.258;2024-03-06T08:33:07;9.00;99.90
41058;DHT22;66768;48.884;2.258;2024-03-06T08:35:34;9.00;99.90
41058;DHT22;66768;48.884;2.258;2024-03-06T08:38:01;9.00;99.90
41058;DHT22;66768;48.884;2.258;2024-03-06T08:40:30;9.00;99.90
41058;DHT22;66768;48.884;2.258;2024-03-06T08:42:57;9.00;99.90
41058;DHT22;66768;48.884;2.258;2024-03-06T08:45:24;9.10;99.90
41058;DHT22;66768;48.884;2.258;2024-03-06T08:47:51;9.10;99.90
41058;DHT22;66768;48.884;2.258;2024-03-06T08:50:19;9.10;99.90
41058;DHT22;66768;48.884;2.258;2024-03-06T08:52:46;9.20;99.90
41058;DHT22;66768;48.884;2.258;2024-03-06T08:55:13;9.10;99.90
41058;DHT22;66768;48.884;2.258;2024-03-06T08:57:42;9.10;99.90
41058;DHT22;66768;48.884;2.258;2024-03-06T09:00:09;9.10;99.90
41058;DHT22;66768;48.884;2.258;2024-03-06T09:02:37;9.10;99.90
41058;DHT22;66768;48.884;2.258;2024-03-06T09:05:05;9.10;99.90
41058;DHT22;66768;48.884;2.258;2024-03-06T09:07:32;9.20;99.90
41058;DHT22;66768;48.884;2.258;2024-03-06T09:10:03;9.20;99.90
41058;DHT22;66768;48.884;2.258;2024-03-06T09:12:32;9.30;99.90
41058;DHT22;66768;48.884;2.258;2024-03-06T09:15:00;9.30;99.90
41058;DHT22;66768;48.884;2.258;2024-03-06T09:17:28;9.20;99.90
41058;DHT22;66768;48.884;2.258;2024-03-06T09:19:55;9.20;99.90
41058;DHT22;66768;48.884;2.258;2024-03-06T09:22:22;9.20;99.90
41058;DHT22;66768;48.884;2.258;2024-03-06T09:24:49;9.10;99.90
41058;DHT22;66768;48.884;2.258;2024-03-06T09:27:16;9.10;99.90
41058;DHT22;66768;48.884;2.258;2024-03-06T09:29:43;9.10;99.90
41058;DHT22;66768;48.884;2.258;2024-03-06T09:32:11;9.20;99.90
41058;DHT22;66768;48.884;2.258;2024-03-06T09:34:41;9.20;99.90
41058;DHT22;66768;48.884;2.258;2024-03-06T09:37:08;9.20;99.90
41058;DHT22;66768;48.884;2.258;2024-03-06T09:39:36;9.20;99.90
41058;DHT22;66768;48.884;2.258;2024-03-06T09:42:06;9.30;99.90
41058;DHT22;66768;48.884;2.258;2024-03-06T09:44:33;9.30;99.90
41058;DHT22;66768;48.884;2.258;2024-03-06T09:47:02;9.30;99.90
41058;DHT22;66768;48.884;2.258;2024-03-06T09:49:31;9.40;99.90
41058;DHT22;66768;48.884;2.258;2024-03-06T09:51:59;9.40;99.90
41058;DHT22;66768;48.884;2.258;2024-03-06T09:54:27;9.30;99.90
41058;DHT22;66768;48.884;2.258;2024-03-06T09:56:54;9.30;99.90
41058;DHT22;66768;48.884;2.258;2024-03-06T09:59:23;9.40;99.90
41058;DHT22;66768;48.884;2.258;2024-03-06T10:01:54;9.40;99.90
41058;DHT22;66768;48.884;2.258;2024-03-06T10:04:21;9.40;99.90
41058;DHT22;66768;48.884;2.258;2024-03-06T10:06:53;9.40;99.90
41058;DHT22;66768;48.884;2.258;2024-03-06T10:09:21;9.40;99.90
41058;DHT22;66768;48.884;2.258;2024-03-06T10:11:48;9.50;99.90
41058;DHT22;66768;48.884;2.258;2024-03-06T10:14:18;9.50;99.90
41058;DHT22;66768;48.884;2.258;2024-03-06T10:16:52;9.50;99.90
41058;DHT22;66768;48.884;2.258;2024-03-06T10:19:19;9.50;99.90
41058;DHT22;66768;48.884;2.258;2024-03-06T10:21:47;9.50;99.90
41058;DHT22;66768;48.884;2.258;2024-03-06T10:24:19;9.50;99.90
41058;DHT22;66768;48.884;2.258;2024-03-06T10:26:47;9.60;99.90
41058;DHT22;66768;48.884;2.258;2024-03-06T10:29:16;9.50;99.90
41058;DHT22;66768;48.884;2.258;2024-03-06T10:31:48;9.60;99.90
41058;DHT22;66768;48.884;2.258;2024-03-06T10:34:16;9.60;99.90
41058;DHT22;66768;48.884;2.258;2024-03-06T10:36:43;9.60;99.90
41058;DHT22;66768;48.884;2.258;2024-03-06T10:39:11;9.60;99.90
41058;DHT22;66768;48.884;2.258;2024-03-06T10:41:40;9.60;99.90
41058;DHT22;66768;48.884;2.258;2024-03-06T10:44:11;9.60;99.90
41058;DHT22;66768;48.884;2.258;2024-03-06T10:46:43;9.60;99.90
41058;DHT22;66768;48.884;2.258;2024-03-06T10:49:11;9.70;99.90
41058;DHT22;66768;48.884;2.258;2024-03-06T10:51:40;9.70;99.90
41058;DHT22;66768;48.884;2.258;2024-03-06T10:54:09;9.70;99.90
41058;DHT22;66768;48.884;2.258;2024-03-06T10:56:40;9.80;99.90
41058;DHT22;66768;48.884;2.258;2024-03-06T10:59:10;9.80;99.90
41058;DHT22;66768;48.884;2.258;2024-03-06T11:01:39;9.80;99.90
41058;DHT22;66768;48.884;2.258;2024-03-06T11:04:09;9.90;99.90
41058;DHT22;66768;48.884;2.258;2024-03-06T11:06:37;9.90;99.90
41058;DHT22;66768;48.884;2.258;2024-03-06T11:09:04;9.90;99.90
41058;DHT22;66768;48.884;2.258;2024-03-06T11:11:48;10.00;99.90
41058;DHT22;66768;48.884;2.258;2024-03-06T11:14:17;10.10;99.90
41058;DHT22;66768;48.884;2.258;2024-03-06T11:17:00;10.10;99.90
41058;DHT22;66768;48.884;2.258;2024-03-06T11:19:29;10.10;99.90
41058;DHT22;66768;48.884;2.258;2024-03-06T11:21:56;10.10;99.90
41058;DHT22;66768;48.884;2.258;2024-03-06T11:24:23;10.10;99.90
41058;DHT22;66768;48.884;2.258;2024-03-06T11:26:55;10.10;99.90
41058;DHT22;66768;48.884;2.258;2024-03-06T11:29:24;10.20;99.90
41058;DHT22;66768;48.884;2.258;2024-03-06T11:32:03;10.10;99.90
41058;DHT22;66768;48.884;2.258;2024-03-06T11:34:33;10.20;99.90
41058;DHT22;66768;48.884;2.258;2024-03-06T11:37:02;10.20;99.90
41058;DHT22;66768;48.884;2.258;2024-03-06T11:39:33;10.30;99.90
41058;DHT22;66768;48.884;2.258;2024-03-06T11:42:04;10.30;99.90
41058;DHT22;66768;48.884;2.258;2024-03-06T11:44:34;10.40;99.90
41058;DHT22;66768;48.884;2.258;2024-03-06T11:47:02;10.50;99.90
41058;DHT22;66768;48.884;2.258;2024-03-06T11:49:30;10.40;99.90
41058;DHT22;66768;48.884;2.258;2024-03-06T11:52:00;10.50;99.90
41058;DHT22;66768;48.884;2.258;2024-03-06T11:54:29;10.50;99.90
41058;DHT22;66768;48.884;2.258;2024-03-06T11:56:57;10.60;99.90
41058;DHT22;66768;48.884;2.258;2024-03-06T11:59:26;10.60;99.90
41058;DHT22;66768;48.884;2.258;2024-03-06T12:01:55;10.60;99.90
41058;DHT22;66768;48.884;2.258;2024-03-06T12:04:22;10.70;99.90
41058;DHT22;66768;48.884;2.258;2024-03-06T12:06:49;10.60;99.90
41058;DHT22;66768;48.884;2.258;2024-03-06T12:09:17;10.60;99.90
41058;DHT22;66768;48.884;2.258;2024-03-06T12:11:44;10.60;99.90
41058;DHT22;66768;48.884;2.258;2024-03-06T12:14:14;10.70;99.90
41058;DHT22;66768;48.884;2.258;2024-03-06T12:16:54;10.70;99.90
41058;DHT22;66768;48.884;2.258;2024-03-06T12:19:21;10.80;99.90
41058;DHT22;66768;48.884;2.258;2024-03-06T12:21:48;10.90;99.90
41058;DHT22;66768;48.884;2.258;2024-03-06T12:24:16;10.90;99.90
41058;DHT22;66768;48.884;2.258;2024-03-06T12:26:44;10.90;99.90
41058;DHT22;66768;48.884;2.258;2024-03-06T12:29:17;11.00;99.90
41058;DHT22;66768;48.884;2.258;2024-03-06T12:31:45;10.90;99.90
41058;DHT22;66768;48.884;2.258;2024-03-06T12:34:14;11.00;99.90
41058;DHT22;66768;48.884;2.258;2024-03-06T12:36:42;11.00;99.90
41058;DHT22;66768;48.884;2.258;2024-03-06T12:39:09;11.00;99.90
41058;DHT22;66768;48.884;2.258;2024-03-06T12:41:38;11.00;99.90
41058;DHT22;66768;48.884;2.258;2024-03-06T12:44:05;11.00;99.90
41058;DHT22;66768;48.884;2.258;2024-03-06T12:46:33;11.00;99.90
41058;DHT22;66768;48.884;2.258;2024-03-06T12:49:01;11.00;99.90
41058;DHT22;66768;48.884;2.258;2024-03-06T12:51:28;11.10;99.90
41058;DHT22;66768;48.884;2.258;2024-03-06T12:53:55;11.10;99.90
41058;DHT22;66768;48.884;2.258;2024-03-06T12:56:22;11.20;99.90
41058;DHT22;66768;48.884;2.258;2024-03-06T12:58:50;11.20;99.90
41058;DHT22;66768;48.884;2.258;2024-03-06T13:01:17;11.20;99.90
41058;DHT22;66768;48.884;2.258;2024-03-06T13:03:45;11.20;99.90
41058;DHT22;66768;48.884;2.258;2024-03-06T13:06:14;11.20;99.90
41058;DHT22;66768;48.884;2.258;2024-03-06T13:08:41;11.20;99.90
41058;DHT22;66768;48.884;2.258;2024-03-06T13:11:07;11.20;99.90
41058;DHT22;66768;48.884;2.258;2024-03-06T13:13:35;11.20;99.90
41058;DHT22;66768;48.884;2.258;2024-03-06T13:16:01;11.20;99.90
41058;DHT22;66768;48.884;2.258;2024-03-06T13:18:28;11.30;99.90
41058;DHT22;66768;48.884;2.258;2024-03-06T13:20:55;11.30;99.90
41058;DHT22;66768;48.884;2.258;2024-03-06T13:23:25;11.30;99.90
41058;DHT22;66768;48.884;2.258;2024-03-06T13:25:52;11.30;99.90
41058;DHT22;66768;48.884;2.258;2024-03-06T13:28:18;11.30;99.90
41058;DHT22;66768;48.884;2.258;2024-03-06T13:30:47;11.30;99.90
41058;DHT22;66768;48.884;2.258;2024-03-06T13:33:16;11.20;99.90
41058;DHT22;66768;48.884;2.258;2024-03-06T13:35:43;11.40;99.90
41058;DHT22;66768;48.884;2.258;2024-03-06T13:38:10;11.40;99.90
41058;DHT22;66768;48.884;2.258;2024-03-06T13:40:38;11.40;99.90
41058;DHT22;66768;48.884;2.258;2024-03-06T13:43:05;11.40;99.90
41058;DHT22;66768;48.884;2.258;2024-03-06T13:45:32;11.50;99.90
41058;DHT22;66768;48.884;2.258;2024-03-06T13:47:59;11.50;99.90
41058;DHT22;66768;48.884;2.258;2024-03-06T13:50:26;11.50;99.90
41058;DHT22;66768;48.884;2.258;2024-03-06T13:52:55;11.60;99.90
41058;DHT22;66768;48.884;2.258;2024-03-06T13:55:21;11.50;99.90
41058;DHT22;66768;48.884;2.258;2024-03-06T13:57:51;11.60;99.90
41058;DHT22;66768;48.884;2.258;2024-03-06T14:00:19;11.50;99.90
41058;DHT22;66768;48.884;2.258;2024-03-06T14:02:47;11.50;99.90
41058;DHT22;66768;48.884;2.258;2024-03-06T14:05:15;11.50;99.90
41058;DHT22;66768;48.884;2.258;2024-03-06T14:07:42;11.50;99.90
41058;DHT22;66768;48.884;2.258;2024-03-06T14:10:09;11.60;99.90
41058;DHT22;66768;48.884;2.258;2024-03-06T14:12:37;11.50;99.90
41058;DHT22;66768;48.884;2.258;2024-03-06T14:15:06;11.50;99.90
41058;DHT22;66768;48.884;2.258;2024-03-06T14:17:37;11.50;99.90
41058;DHT22;66768;48.884;2.258;2024-03-06T14:20:05;11.50;99.90
41058;DHT22;66768;48.884;2.258;2024-03-06T14:22:32;11.60;99.90
41058;DHT22;66768;48.884;2.258;2024-03-06T14:24:59;11.60;99.90
41058;DHT22;66768;48.884;2.258;2024-03-06T14:27:25;11.50;99.90
41058;DHT22;66768;48.884;2.258;2024-03-06T14:29:52;11.60;99.90
41058;DHT22;66768;48.884;2.258;2024-03-06T14:32:21;11.60;99.90
41058;DHT22;66768;48.884;2.258;2024-03-06T14:34:48;11.60;99.90
41058;DHT22;66768;48.884;2.258;2024-03-06T14:37:16;11.60;99.90
41058;DHT22;66768;48.884;2.258;2024-03-06T14:39:43;11.60;99.90
41058;DHT22;66768;48.884;2.258;2024-03-06T14:42:09;11.60;99.90
41058;DHT22;66768;48.884;2.258;2024-03-06T14:44:36;11.60;99.90
41058;DHT22;66768;48.884;2.258;2024-03-06T14:47:03;11.70;99.90
41058;DHT22;66768;48.884;2.258;2024-03-06T14:49:32;11.70;99.90
41058;DHT22;66768;48.884;2.258;2024-03-06T14:52:00;11.70;99.90
41058;DHT22;66768;48.884;2.258;2024-03-06T14:54:27;11.60;99.90
41058;DHT22;66768;48.884;2.258;2024-03-06T14:56:54;11.60;99.90
41058;DHT22;66768;48.884;2.258;2024-03-06T14:59:21;11.60;99.90
41058;DHT22;66768;48.884;2.258;2024-03-06T15:01:48;11.70;99.90
41058;DHT22;66768;48.884;2.258;2024-03-06T15:04:15;11.70;99.90
41058;DHT22;66768;48.884;2.258;2024-03-06T15:06:45;11.70;99.90
41058;DHT22;66768;48.884;2.258;2024-03-06T15:09:12;11.60;99.90
41058;DHT22;66768;48.884;2.258;2024-03-06T15:11:41;11.70;99.90
41058;DHT22;66768;48.884;2.258;2024-03-06T15:14:08;11.70;99.90
41058;DHT22;66768;48.884;2.258;2024-03-06T15:16:36;11.70;99.90
41058;DHT22;66768;48.884;2.258;2024-03-06T15:19:03;11.70;99.90
41058;DHT22;66768;48.884;2.258;2024-03-06T15:21:30;11.70;99.90
41058;DHT22;66768;48.884;2.258;2024-03-06T15:23:58;11.70;99.90
41058;DHT22;66768;48.884;2.258;2024-03-06T15:26:25;11.60;99.90
41058;DHT22;66768;48.884;2.258;2024-03-06T15:28:55;11.70;99.90
41058;DHT22;66768;48.884;2.258;2024-03-06T15:31:22;11.60;99.90
41058;DHT22;66768;48.884;2.258;2024-03-06T15:33:49;11.60;99.90
41058;DHT22;66768;48.884;2.258;2024-03-06T15:36:17;11.60;99.90
41058;DHT22;66768;48.884;2.258;2024-03-06T15:38:43;11.50;99.90
41058;DHT22;66768;48.884;2.258;2024-03-06T15:41:12;11.50;99.90
41058;DHT22;66768;48.884;2.258;2024-03-06T15:43:38;11.60;99.90
41058;DHT22;66768;48.884;2.258;2024-03-06T15:46:06;11.50;99.90